sensor_id;sensor_type;location;lat;lon;timestamp;temperature;humidity
37268;DHT22;23154;52.542;13.362;2022-12-18T00:00:02;-5.40;99.90
37268;DHT22;23154;52.542;13.362;2022-12-18T00:02:30;-5.40;99.90
37268;DHT22;23154;52.542;13.362;2022-12-18T00:04:57;-5.50;99.90
37268;DHT22;23154;52.542;13.362;2022-12-18T00:07:22;-5.50;99.90
37268;DHT22;23154;52.542;13.362;2022-12-18T00:09:48;-5.40;99.90
37268;DHT22;23154;52.542;13.362;2022-12-18T00:12:14;-5.50;99.90
37268;DHT22;23154;52.542;13.362;2022-12-18T00:14:39;-5.40;99.90
37268;DHT22;23154;52.542;13.362;2022-12-18T00:17:05;-5.40;99.90
37268;DHT22;23154;52.542;13.362;2022-12-18T00:19:32;-5.40;99.90
37268;DHT22;23154;52.542;13.362;2022-12-18T00:21:57;-5.50;99.90
37268;DHT22;23154;52.542;13.362;2022-12-18T00:24:23;-5.60;99.90
37268;DHT22;23154;52.542;13.362;2022-12-18T00:26:49;-5.60;99.90
37268;DHT22;23154;52.542;13.362;2022-12-18T00:29:15;-5.60;99.90
37268;DHT22;23154;52.542;13.362;2022-12-18T00:31:41;-5.50;99.90
37268;DHT22;23154;52.542;13.362;2022-12-18T00:34:10;-5.50;99.90
37268;DHT22;23154;52.542;13.362;2022-12-18T00:36:37;-5.50;99.90
37268;DHT22;23154;52.542;13.362;2022-12-18T00:39:04;-5.50;99.90
37268;DHT22;23154;52.542;13.362;2022-12-18T00:41:30;-5.50;99.90
37268;DHT22;23154;52.542;13.362;2022-12-18T00:44:15;-5.50;99.90
37268;DHT22;23154;52.542;13.362;2022-12-18T00:46:41;-5.50;99.90
37268;DHT22;23154;52.542;13.362;2022-12-18T00:49:07;-5.40;99.90
37268;DHT22;23154;52.542;13.362;2022-12-18T00:51:33;-5.40;99.90
37268;DHT22;23154;52.542;13.362;2022-12-18T00:53:59;-5.40;99.90
37268;DHT22;23154;52.542;13.362;2022-12-18T00:56:25;-5.40;99.90
37268;DHT22;23154;52.542;13.362;2022-12-18T00:58:51;-5.40;99.90
37268;DHT22;23154;52.542;13.362;2022-12-18T01:01:16;-5.60;99.90
37268;DHT22;23154;52.542;13.362;2022-12-18T01:03:42;-5.70;99.90
37268;DHT22;23154;52.542;13.362;2022-12-18T01:06:10;-5.70;99.90
37268;DHT22;23154;52.542;13.362;2022-12-18T01:08:38;-5.60;99.90
37268;DHT22;23154;52.542;13.362;2022-12-18T01:11:22;-5.50;99.90
37268;DHT22;23154;52.542;13.362;2022-12-18T01:13:48;-5.60;99.90
37268;DHT22;23154;52.542;13.362;2022-12-18T01:16:15;-5.50;99.90
37268;DHT22;23154;52.542;13.362;2022-12-18T01:18:41;-5.50;99.90
37268;DHT22;23154;52.542;13.362;2022-12-18T01:21:13;-5.50;99.90
37268;DHT22;23154;52.542;13.362;2022-12-18T01:23:39;-5.50;99.90
37268;DHT22;23154;52.542;13.362;2022-12-18T01:26:06;-5.40;99.90
37268;DHT22;23154;52.542;13.362;2022-12-18T01:28:31;-5.30;99.90
37268;DHT22;23154;52.542;13.362;2022-12-18T01:30:57;-5.50;99.90
37268;DHT22;23154;52.542;13.362;2022-12-18T01:33:22;-5.60;99.90
37268;DHT22;23154;52.542;13.362;2022-12-18T01:35:49;-5.60;99.90
37268;DHT22;23154;52.542;13.362;2022-12-18T01:38:15;-5.80;99.90
37268;DHT22;23154;52.542;13.362;2022-12-18T01:40:41;-5.80;99.90
37268;DHT22;23154;52.542;13.362;2022-12-18T01:43:08;-5.80;99.90
37268;DHT22;23154;52.542;13.362;2022-12-18T01:45:34;-5.70;99.90
37268;DHT22;23154;52.542;13.362;2022-12-18T01:48:01;-5.70;99.90
37268;DHT22;23154;52.542;13.362;2022-12-18T01:53:00;-5.80;99.90
37268;DHT22;23154;52.542;13.362;2022-12-18T01:55:28;-5.80;99.90
37268;DHT22;23154;52.542;13.362;2022-12-18T01:57:56;-5.80;99.90
37268;DHT22;23154;52.542;13.362;2022-12-18T02:00:23;-5.90;99.90
37268;DHT22;23154;52.542;13.362;2022-12-18T02:02:49;-5.90;99.90
37268;DHT22;23154;52.542;13.362;2022-12-18T02:05:16;-6.00;99.90
37268;DHT22;23154;52.542;13.362;2022-12-18T02:08:01;-6.00;99.90
37268;DHT22;23154;52.542;13.362;2022-12-18T02:10:52;-6.00;99.90
37268;DHT22;23154;52.542;13.362;2022-12-18T02:16:01;-6.10;99.90
37268;DHT22;23154;52.542;13.362;2022-12-18T02:18:33;-6.10;99.90
37268;DHT22;23154;52.542;13.362;2022-12-18T02:24:21;-6.00;99.90
37268;DHT22;23154;52.542;13.362;2022-12-18T02:26:50;-6.00;99.90
37268;DHT22;23154;52.542;13.362;2022-12-18T02:29:23;-6.10;99.90
37268;DHT22;23154;52.542;13.362;2022-12-18T02:31:53;-6.10;99.90
37268;DHT22;23154;52.542;13.362;2022-12-18T02:34:22;-6.10;99.90
37268;DHT22;23154;52.542;13.362;2022-12-18T02:36:49;-6.00;99.90
37268;DHT22;23154;52.542;13.362;2022-12-18T02:39:16;-6.10;99.90
37268;DHT22;23154;52.542;13.362;2022-12-18T02:41:43;-6.10;99.90
37268;DHT22;23154;52.542;13.362;2022-12-18T02:44:10;-6.10;99.90
37268;DHT22;23154;52.542;13.362;2022-12-18T02:46:37;-6.10;99.90
37268;DHT22;23154;52.542;13.362;2022-12-18T02:56:54;-6.10;99.90
37268;DHT22;23154;52.542;13.362;2022-12-18T02:59:30;-6.00;99.90
37268;DHT22;23154;52.542;13.362;2022-12-18T03:02:15;-5.90;99.90
37268;DHT22;23154;52.542;13.362;2022-12-18T03:04:43;-6.00;99.90
37268;DHT22;23154;52.542;13.362;2022-12-18T03:07:18;-6.20;99.90
37268;DHT22;23154;52.542;13.362;2022-12-18T03:09:46;-6.20;99.90
37268;DHT22;23154;52.542;13.362;2022-12-18T03:14:55;-6.40;99.90
37268;DHT22;23154;52.542;13.362;2022-12-18T03:17:24;-6.30;99.90
37268;DHT22;23154;52.542;13.362;2022-12-18T03:19:51;-6.30;99.90
37268;DHT22;23154;52.542;13.362;2022-12-18T03:22:17;-6.30;99.90
37268;DHT22;23154;52.542;13.362;2022-12-18T03:24:44;-6.30;99.90
37268;DHT22;23154;52.542;13.362;2022-12-18T03:27:10;-6.20;99.90
37268;DHT22;23154;52.542;13.362;2022-12-18T03:29:38;-6.20;99.90
37268;DHT22;23154;52.542;13.362;2022-12-18T03:32:07;-6.10;99.90
37268;DHT22;23154;52.542;13.362;2022-12-18T03:34:36;-6.10;99.90
37268;DHT22;23154;52.542;13.362;2022-12-18T03:37:04;-6.00;99.90
37268;DHT22;23154;52.542;13.362;2022-12-18T03:39:30;-6.00;99.90
37268;DHT22;23154;52.542;13.362;2022-12-18T03:42:10;-6.00;99.90
37268;DHT22;23154;52.542;13.362;2022-12-18T03:44:42;-6.00;99.90
37268;DHT22;23154;52.542;13.362;2022-12-18T03:49:45;-6.10;99.90
37268;DHT22;23154;52.542;13.362;2022-12-18T03:52:14;-6.20;99.90
37268;DHT22;23154;52.542;13.362;2022-12-18T03:54:42;-6.30;99.90
37268;DHT22;23154;52.542;13.362;2022-12-18T03:57:29;-6.20;99.90
37268;DHT22;23154;52.542;13.362;2022-12-18T04:02:50;-6.30;99.90
37268;DHT22;23154;52.542;13.362;2022-12-18T04:05:16;-6.30;99.90
37268;DHT22;23154;52.542;13.362;2022-12-18T04:07:45;-6.30;99.90
37268;DHT22;23154;52.542;13.362;2022-12-18T04:10:12;-6.40;99.90
37268;DHT22;23154;52.542;13.362;2022-12-18T04:12:39;-6.40;99.90
37268;DHT22;23154;52.542;13.362;2022-12-18T04:15:05;-6.40;99.90
37268;DHT22;23154;52.542;13.362;2022-12-18T04:17:32;-6.30;99.90
37268;DHT22;23154;52.542;13.362;2022-12-18T04:19:57;-6.20;99.90
37268;DHT22;23154;52.542;13.362;2022-12-18T04:22:23;-6.30;99.90
37268;DHT22;23154;52.542;13.362;2022-12-18T04:24:48;-6.20;99.90
37268;DHT22;23154;52.542;13.362;2022-12-18T04:27:14;-6.30;99.90
37268;DHT22;23154;52.542;13.362;2022-12-18T04:29:41;-6.30;99.90
37268;DHT22;23154;52.542;13.362;2022-12-18T04:32:07;-6.30;99.90
37268;DHT22;23154;52.542;13.362;2022-12-18T04:34:33;-6.20;99.90
37268;DHT22;23154;52.542;13.362;2022-12-18T04:36:58;-6.30;99.90
37268;DHT22;23154;52.542;13.362;2022-12-18T04:39:24;-6.40;99.90
37268;DHT22;23154;52.542;13.362;2022-12-18T04:41:51;-6.30;99.90
37268;DHT22;23154;52.542;13.362;2022-12-18T04:44:17;-6.40;99.90
37268;DHT22;23154;52.542;13.362;2022-12-18T04:46:42;-6.50;99.90
37268;DHT22;23154;52.542;13.362;2022-12-18T04:49:08;-6.60;99.90
37268;DHT22;23154;52.542;13.362;2022-12-18T04:51:37;-6.70;99.90
37268;DHT22;23154;52.542;13.362;2022-12-18T04:54:05;-6.70;99.90
37268;DHT22;23154;52.542;13.362;2022-12-18T04:56:31;-6.70;99.90
37268;DHT22;23154;52.542;13.362;2022-12-18T04:58:57;-6.60;99.90
37268;DHT22;23154;52.542;13.362;2022-12-18T05:01:22;-6.50;99.90
37268;DHT22;23154;52.542;13.362;2022-12-18T05:03:48;-6.60;99.90
37268;DHT22;23154;52.542;13.362;2022-12-18T05:06:14;-6.50;99.90
37268;DHT22;23154;52.542;13.362;2022-12-18T05:08:40;-6.50;99.90
37268;DHT22;23154;52.542;13.362;2022-12-18T05:11:09;-6.50;99.90
37268;DHT22;23154;52.542;13.362;2022-12-18T05:13:35;-6.50;99.90
37268;DHT22;23154;52.542;13.362;2022-12-18T05:16:00;-6.40;99.90
37268;DHT22;23154;52.542;13.362;2022-12-18T05:18:26;-6.50;99.90
37268;DHT22;23154;52.542;13.362;2022-12-18T05:20:52;-6.40;99.90
37268;DHT22;23154;52.542;13.362;2022-12-18T05:23:18;-6.40;99.90
37268;DHT22;23154;52.542;13.362;2022-12-18T05:25:53;-6.40;99.90
37268;DHT22;23154;52.542;13.362;2022-12-18T05:28:23;-6.40;99.90
37268;DHT22;23154;52.542;13.362;2022-12-18T05:30:49;-6.30;99.90
37268;DHT22;23154;52.542;13.362;2022-12-18T05:33:16;-6.40;99.90
37268;DHT22;23154;52.542;13.362;2022-12-18T05:35:41;-6.40;99.90
37268;DHT22;23154;52.542;13.362;2022-12-18T05:38:07;-6.50;99.90
37268;DHT22;23154;52.542;13.362;2022-12-18T05:40:32;-6.50;99.90
37268;DHT22;23154;52.542;13.362;2022-12-18T05:42:58;-6.40;99.90
37268;DHT22;23154;52.542;13.362;2022-12-18T05:45:23;-6.50;99.90
37268;DHT22;23154;52.542;13.362;2022-12-18T05:47:49;-6.50;99.90
37268;DHT22;23154;52.542;13.362;2022-12-18T05:50:15;-6.50;99.90
37268;DHT22;23154;52.542;13.362;2022-12-18T05:52:41;-6.60;99.90
37268;DHT22;23154;52.542;13.362;2022-12-18T05:55:07;-6.60;99.90
37268;DHT22;23154;52.542;13.362;2022-12-18T05:57:32;-6.60;99.90
37268;DHT22;23154;52.542;13.362;2022-12-18T06:00:00;-6.50;99.90
37268;DHT22;23154;52.542;13.362;2022-12-18T06:02:25;-6.60;99.90
37268;DHT22;23154;52.542;13.362;2022-12-18T06:04:51;-6.60;99.90
37268;DHT22;23154;52.542;13.362;2022-12-18T06:07:17;-6.60;99.90
37268;DHT22;23154;52.542;13.362;2022-12-18T06:09:42;-6.50;99.90
37268;DHT22;23154;52.542;13.362;2022-12-18T06:12:08;-6.50;99.90
37268;DHT22;23154;52.542;13.362;2022-12-18T06:14:33;-6.50;99.90
37268;DHT22;23154;52.542;13.362;2022-12-18T06:17:02;-6.50;99.90
37268;DHT22;23154;52.542;13.362;2022-12-18T06:19:28;-6.50;99.90
37268;DHT22;23154;52.542;13.362;2022-12-18T06:21:53;-6.50;99.90
37268;DHT22;23154;52.542;13.362;2022-12-18T06:24:19;-6.60;99.90
37268;DHT22;23154;52.542;13.362;2022-12-18T06:26:48;-6.50;99.90
37268;DHT22;23154;52.542;13.362;2022-12-18T06:29:14;-6.40;99.90
37268;DHT22;23154;52.542;13.362;2022-12-18T06:31:39;-6.40;99.90
37268;DHT22;23154;52.542;13.362;2022-12-18T06:34:05;-6.40;99.90
37268;DHT22;23154;52.542;13.362;2022-12-18T06:36:30;-6.50;99.90
37268;DHT22;23154;52.542;13.362;2022-12-18T06:38:56;-6.40;99.90
37268;DHT22;23154;52.542;13.362;2022-12-18T06:41:22;-6.50;99.90
37268;DHT22;23154;52.542;13.362;2022-12-18T06:43:47;-6.60;99.90
37268;DHT22;23154;52.542;13.362;2022-12-18T06:46:14;-6.60;99.90
37268;DHT22;23154;52.542;13.362;2022-12-18T06:48:40;-6.60;99.90
37268;DHT22;23154;52.542;13.362;2022-12-18T06:51:08;-6.60;99.90
37268;DHT22;23154;52.542;13.362;2022-12-18T06:53:35;-6.60;99.90
37268;DHT22;23154;52.542;13.362;2022-12-18T06:56:04;-6.60;99.90
37268;DHT22;23154;52.542;13.362;2022-12-18T06:58:30;-6.60;99.90
37268;DHT22;23154;52.542;13.362;2022-12-18T07:00:59;-6.60;99.90
37268;DHT22;23154;52.542;13.362;2022-12-18T07:03:25;-6.50;99.90
37268;DHT22;23154;52.542;13.362;2022-12-18T07:05:50;-6.50;99.90
37268;DHT22;23154;52.542;13.362;2022-12-18T07:08:16;-6.50;99.90
37268;DHT22;23154;52.542;13.362;2022-12-18T07:10:42;-6.50;99.90
37268;DHT22;23154;52.542;13.362;2022-12-18T07:13:08;-6.60;99.90
37268;DHT22;23154;52.542;13.362;2022-12-18T07:15:34;-6.60;99.90
37268;DHT22;23154;52.542;13.362;2022-12-18T07:18:00;-6.70;99.90
37268;DHT22;23154;52.542;13.362;2022-12-18T07:20:25;-6.60;99.90
37268;DHT22;23154;52.542;13.362;2022-12-18T07:22:51;-6.50;99.90
37268;DHT22;23154;52.542;13.362;2022-12-18T07:25:17;-6.50;99.90
37268;DHT22;23154;52.542;13.362;2022-12-18T07:27:44;-6.40;99.90
37268;DHT22;23154;52.542;13.362;2022-12-18T07:30:09;-6.50;99.90
37268;DHT22;23154;52.542;13.362;2022-12-18T07:32:35;-6.60;99.90
37268;DHT22;23154;52.542;13.362;2022-12-18T07:35:01;-6.50;99.90
37268;DHT22;23154;52.542;13.362;2022-12-18T07:37:26;-6.40;99.90
37268;DHT22;23154;52.542;13.362;2022-12-18T07:39:52;-6.30;99.90
37268;DHT22;23154;52.542;13.362;2022-12-18T07:42:17;-6.20;99.90
37268;DHT22;23154;52.542;13.362;2022-12-18T07:44:59;-6.30;99.90
37268;DHT22;23154;52.542;13.362;2022-12-18T07:47:25;-6.20;99.90
37268;DHT22;23154;52.542;13.362;2022-12-18T07:49:51;-6.20;99.90
37268;DHT22;23154;52.542;13.362;2022-12-18T07:52:16;-6.10;99.90
37268;DHT22;23154;52.542;13.362;2022-12-18T07:54:42;-6.00;99.90
37268;DHT22;23154;52.542;13.362;2022-12-18T07:57:08;-6.00;99.90
37268;DHT22;23154;52.542;13.362;2022-12-18T07:59:34;-6.00;99.90
37268;DHT22;23154;52.542;13.362;2022-12-18T08:01:59;-5.90;99.90
37268;DHT22;23154;52.542;13.362;2022-12-18T08:04:25;-5.90;99.90
37268;DHT22;23154;52.542;13.362;2022-12-18T08:06:52;-5.80;99.90
37268;DHT22;23154;52.542;13.362;2022-12-18T08:09:18;-5.70;99.90
37268;DHT22;23154;52.542;13.362;2022-12-18T08:11:44;-5.70;99.90
37268;DHT22;23154;52.542;13.362;2022-12-18T08:14:09;-5.70;99.90
37268;DHT22;23154;52.542;13.362;2022-12-18T08:16:35;-5.70;99.90
37268;DHT22;23154;52.542;13.362;2022-12-18T08:19:00;-5.70;99.90
37268;DHT22;23154;52.542;13.362;2022-12-18T08:21:27;-5.60;99.90
37268;DHT22;23154;52.542;13.362;2022-12-18T08:23:54;-5.50;99.90
37268;DHT22;23154;52.542;13.362;2022-12-18T08:26:20;-5.40;99.90
37268;DHT22;23154;52.542;13.362;2022-12-18T08:28:46;-5.50;99.90
37268;DHT22;23154;52.542;13.362;2022-12-18T08:31:11;-5.40;99.90
37268;DHT22;23154;52.542;13.362;2022-12-18T08:33:37;-5.50;99.90
37268;DHT22;23154;52.542;13.362;2022-12-18T08:36:03;-5.60;99.90
37268;DHT22;23154;52.542;13.362;2022-12-18T08:38:31;-5.70;99.90
37268;DHT22;23154;52.542;13.362;2022-12-18T08:41:00;-5.50;99.90
37268;DHT22;23154;52.542;13.362;2022-12-18T08:43:26;-5.50;99.90
37268;DHT22;23154;52.542;13.362;2022-12-18T08:46:10;-5.40;99.90
37268;DHT22;23154;52.542;13.362;2022-12-18T08:48:36;-5.50;99.90
37268;DHT22;23154;52.542;13.362;2022-12-18T08:51:02;-5.30;99.90
37268;DHT22;23154;52.542;13.362;2022-12-18T08:53:28;-5.30;99.90
37268;DHT22;23154;52.542;13.362;2022-12-18T08:55:55;-5.30;99.90
37268;DHT22;23154;52.542;13.362;2022-12-18T08:58:21;-5.30;99.90
37268;DHT22;23154;52.542;13.362;2022-12-18T09:00:46;-5.30;99.90
37268;DHT22;23154;52.542;13.362;2022-12-18T09:03:15;-5.30;99.90
37268;DHT22;23154;52.542;13.362;2022-12-18T09:05:43;-5.20;99.90
37268;DHT22;23154;52.542;13.362;2022-12-18T09:08:09;-5.20;99.90
37268;DHT22;23154;52.542;13.362;2022-12-18T09:10:41;-5.20;99.90
37268;DHT22;23154;52.542;13.362;2022-12-18T09:13:07;-5.30;99.90
37268;DHT22;23154;52.542;13.362;2022-12-18T09:15:40;-5.20;99.90
37268;DHT22;23154;52.542;13.362;2022-12-18T09:18:07;-5.30;99.90
37268;DHT22;23154;52.542;13.362;2022-12-18T09:20:33;-5.40;99.90
37268;DHT22;23154;52.542;13.362;2022-12-18T09:22:59;-5.50;99.90
37268;DHT22;23154;52.542;13.362;2022-12-18T09:25:24;-5.40;99.90
37268;DHT22;23154;52.542;13.362;2022-12-18T09:27:50;-5.30;99.90
37268;DHT22;23154;52.542;13.362;2022-12-18T09:30:15;-5.30;99.90
37268;DHT22;23154;52.542;13.362;2022-12-18T09:32:42;-5.30;99.90
37268;DHT22;23154;52.542;13.362;2022-12-18T09:35:08;-5.30;99.90
37268;DHT22;23154;52.542;13.362;2022-12-18T09:37:33;-5.20;99.90
37268;DHT22;23154;52.542;13.362;2022-12-18T09:40:00;-5.10;99.90
37268;DHT22;23154;52.542;13.362;2022-12-18T09:42:26;-4.90;99.90
37268;DHT22;23154;52.542;13.362;2022-12-18T09:44:52;-5.10;99.90
37268;DHT22;23154;52.542;13.362;2022-12-18T09:49:45;-5.10;99.90
37268;DHT22;23154;52.542;13.362;2022-12-18T09:52:12;-5.00;99.90
37268;DHT22;23154;52.542;13.362;2022-12-18T09:54:43;-5.00;99.90
37268;DHT22;23154;52.542;13.362;2022-12-18T09:57:14;-5.00;99.90
37268;DHT22;23154;52.542;13.362;2022-12-18T09:59:40;-4.90;99.90
37268;DHT22;23154;52.542;13.362;2022-12-18T10:02:20;-4.80;99.90
37268;DHT22;23154;52.542;13.362;2022-12-18T10:04:50;-4.80;99.90
37268;DHT22;23154;52.542;13.362;2022-12-18T10:07:20;-4.80;99.90
37268;DHT22;23154;52.542;13.362;2022-12-18T10:19:45;-4.70;99.90
37268;DHT22;23154;52.542;13.362;2022-12-18T10:27:55;-4.50;99.90
37268;DHT22;23154;52.542;13.362;2022-12-18T10:30:24;-4.50;99.90
37268;DHT22;23154;52.542;13.362;2022-12-18T10:32:50;-4.30;99.90
37268;DHT22;23154;52.542;13.362;2022-12-18T10:35:20;-4.20;99.90
37268;DHT22;23154;52.542;13.362;2022-12-18T10:38:03;-4.10;99.90
37268;DHT22;23154;52.542;13.362;2022-12-18T10:40:28;-4.20;99.90
37268;DHT22;23154;52.542;13.362;2022-12-18T10:43:13;-4.10;99.90
37268;DHT22;23154;52.542;13.362;2022-12-18T10:45:40;-4.10;99.90
37268;DHT22;23154;52.542;13.362;2022-12-18T10:48:19;-4.00;99.90
37268;DHT22;23154;52.542;13.362;2022-12-18T10:50:47;-3.80;99.90
37268;DHT22;23154;52.542;13.362;2022-12-18T10:53:16;-3.70;99.90
37268;DHT22;23154;52.542;13.362;2022-12-18T10:55:46;-3.70;99.90
37268;DHT22;23154;52.542;13.362;2022-12-18T10:58:16;-3.60;99.90
37268;DHT22;23154;52.542;13.362;2022-12-18T11:00:42;-3.80;99.90
37268;DHT22;23154;52.542;13.362;2022-12-18T11:06:03;-3.50;99.90
37268;DHT22;23154;52.542;13.362;2022-12-18T11:08:30;-3.60;99.90
37268;DHT22;23154;52.542;13.362;2022-12-18T11:10:56;-3.60;99.90
37268;DHT22;23154;52.542;13.362;2022-12-18T11:13:23;-3.60;99.90
37268;DHT22;23154;52.542;13.362;2022-12-18T11:15:50;-3.60;99.90
37268;DHT22;23154;52.542;13.362;2022-12-18T11:18:25;-3.40;99.90
37268;DHT22;23154;52.542;13.362;2022-12-18T11:20:52;-3.40;99.90
37268;DHT22;23154;52.542;13.362;2022-12-18T11:23:18;-3.30;99.90
37268;DHT22;23154;52.542;13.362;2022-12-18T11:25:55;-3.30;99.90
37268;DHT22;23154;52.542;13.362;2022-12-18T11:28:36;-3.40;99.90
37268;DHT22;23154;52.542;13.362;2022-12-18T11:31:11;-3.50;99.90
37268;DHT22;23154;52.542;13.362;2022-12-18T11:33:37;-3.40;99.90
37268;DHT22;23154;52.542;13.362;2022-12-18T11:36:04;-3.30;99.90
37268;DHT22;23154;52.542;13.362;2022-12-18T11:38:34;-3.30;99.90
37268;DHT22;23154;52.542;13.362;2022-12-18T11:41:00;-3.40;99.90
37268;DHT22;23154;52.542;13.362;2022-12-18T11:43:30;-3.60;99.90
37268;DHT22;23154;52.542;13.362;2022-12-18T11:46:00;-3.70;99.90
37268;DHT22;23154;52.542;13.362;2022-12-18T11:48:33;-3.50;99.90
37268;DHT22;23154;52.542;13.362;2022-12-18T11:51:00;-3.80;99.90
37268;DHT22;23154;52.542;13.362;2022-12-18T11:53:28;-3.70;99.90
37268;DHT22;23154;52.542;13.362;2022-12-18T11:58:32;-3.90;99.90
37268;DHT22;23154;52.542;13.362;2022-12-18T12:01:03;-3.90;99.90
37268;DHT22;23154;52.542;13.362;2022-12-18T12:05:59;-3.90;99.90
37268;DHT22;23154;52.542;13.362;2022-12-18T12:08:45;-4.00;99.90
37268;DHT22;23154;52.542;13.362;2022-12-18T12:11:20;-4.10;99.90
37268;DHT22;23154;52.542;13.362;2022-12-18T12:16:36;-4.10;99.90
37268;DHT22;23154;52.542;13.362;2022-12-18T12:19:21;-4.10;99.90
37268;DHT22;23154;52.542;13.362;2022-12-18T12:21:58;-4.10;99.90
37268;DHT22;23154;52.542;13.362;2022-12-18T12:27:02;-4.10;99.90
37268;DHT22;23154;52.542;13.362;2022-12-18T12:32:07;-4.10;99.90
37268;DHT22;23154;52.542;13.362;2022-12-18T12:34:42;-4.10;99.90
37268;DHT22;23154;52.542;13.362;2022-12-18T12:39:35;-4.10;99.90
37268;DHT22;23154;52.542;13.362;2022-12-18T12:42:03;-4.00;99.90
37268;DHT22;23154;52.542;13.362;2022-12-18T12:44:51;-3.90;99.90
37268;DHT22;23154;52.542;13.362;2022-12-18T12:49:48;-3.80;99.90
37268;DHT22;23154;52.542;13.362;2022-12-18T12:52:21;-3.70;99.90
37268;DHT22;23154;52.542;13.362;2022-12-18T12:54:50;-3.70;99.90
37268;DHT22;23154;52.542;13.362;2022-12-18T12:57:20;-3.70;99.90
37268;DHT22;23154;52.542;13.362;2022-12-18T12:59:57;-3.60;99.90
37268;DHT22;23154;52.542;13.362;2022-12-18T13:02:28;-3.70;99.90
37268;DHT22;23154;52.542;13.362;2022-12-18T13:05:06;-3.60;99.90
37268;DHT22;23154;52.542;13.362;2022-12-18T13:07:54;-3.50;99.90
37268;DHT22;23154;52.542;13.362;2022-12-18T13:10:23;-3.50;99.90
37268;DHT22;23154;52.542;13.362;2022-12-18T13:15:34;-3.60;99.90
37268;DHT22;23154;52.542;13.362;2022-12-18T13:20:42;-3.50;99.90
37268;DHT22;23154;52.542;13.362;2022-12-18T13:25:45;-3.40;99.90
37268;DHT22;23154;52.542;13.362;2022-12-18T13:28:15;-3.50;99.90
37268;DHT22;23154;52.542;13.362;2022-12-18T13:35:41;-3.30;99.90
37268;DHT22;23154;52.542;13.362;2022-12-18T13:45:48;-3.40;99.90
37268;DHT22;23154;52.542;13.362;2022-12-18T13:48:23;-3.40;99.90
37268;DHT22;23154;52.542;13.362;2022-12-18T13:53:29;-3.50;99.90
37268;DHT22;23154;52.542;13.362;2022-12-18T13:55:56;-3.40;99.90
37268;DHT22;23154;52.542;13.362;2022-12-18T13:58:23;-3.50;99.90
37268;DHT22;23154;52.542;13.362;2022-12-18T14:00:48;-3.50;99.90
37268;DHT22;23154;52.542;13.362;2022-12-18T14:03:16;-3.50;99.90
37268;DHT22;23154;52.542;13.362;2022-12-18T14:05:43;-3.50;99.90
37268;DHT22;23154;52.542;13.362;2022-12-18T14:08:12;-3.60;99.90
37268;DHT22;23154;52.542;13.362;2022-12-18T14:10:42;-3.60;99.90
37268;DHT22;23154;52.542;13.362;2022-12-18T14:13:09;-3.70;99.90
37268;DHT22;23154;52.542;13.362;2022-12-18T14:15:38;-3.80;99.90
37268;DHT22;23154;52.542;13.362;2022-12-18T14:20:51;-3.80;99.90
37268;DHT22;23154;52.542;13.362;2022-12-18T14:25:52;-3.90;99.90
37268;DHT22;23154;52.542;13.362;2022-12-18T14:28:17;-3.80;99.90
37268;DHT22;23154;52.542;13.362;2022-12-18T14:30:44;-3.80;99.90
37268;DHT22;23154;52.542;13.362;2022-12-18T14:33:11;-3.80;99.90
37268;DHT22;23154;52.542;13.362;2022-12-18T14:35:38;-3.80;99.90
37268;DHT22;23154;52.542;13.362;2022-12-18T14:38:15;-3.80;99.90
37268;DHT22;23154;52.542;13.362;2022-12-18T14:40:43;-3.80;99.90
37268;DHT22;23154;52.542;13.362;2022-12-18T14:43:12;-3.60;99.90
37268;DHT22;23154;52.542;13.362;2022-12-18T14:45:42;-3.60;99.90
37268;DHT22;23154;52.542;13.362;2022-12-18T14:50:33;-3.70;99.90
37268;DHT22;23154;52.542;13.362;2022-12-18T14:52:59;-3.60;99.90
37268;DHT22;23154;52.542;13.362;2022-12-18T14:55:25;-3.60;99.90
37268;DHT22;23154;52.542;13.362;2022-12-18T14:57:51;-3.60;99.90
37268;DHT22;23154;52.542;13.362;2022-12-18T15:00:18;-3.50;99.90
37268;DHT22;23154;52.542;13.362;2022-12-18T15:02:48;-3.50;99.90
37268;DHT22;23154;52.542;13.362;2022-12-18T15:05:20;-3.60;99.90
37268;DHT22;23154;52.542;13.362;2022-12-18T15:07:48;-3.50;99.90
37268;DHT22;23154;52.542;13.362;2022-12-18T15:10:17;-3.70;99.90
37268;DHT22;23154;52.542;13.362;2022-12-18T15:12:45;-3.80;99.90
37268;DHT22;23154;52.542;13.362;2022-12-18T15:20:51;-4.10;99.90
37268;DHT22;23154;52.542;13.362;2022-12-18T15:23:59;-4.10;99.90
37268;DHT22;23154;52.542;13.362;2022-12-18T15:26:07;-4.10;99.90
37268;DHT22;23154;52.542;13.362;2022-12-18T15:34:00;-4.10;99.90
37268;DHT22;23154;52.542;13.362;2022-12-18T15:36:28;-4.00;99.90
37268;DHT22;23154;52.542;13.362;2022-12-18T15:39:02;-4.10;99.90
37268;DHT22;23154;52.542;13.362;2022-12-18T15:41:34;-4.00;99.90
37268;DHT22;23154;52.542;13.362;2022-12-18T15:44:03;-4.00;99.90
37268;DHT22;23154;52.542;13.362;2022-12-18T15:46:42;-4.00;99.90
37268;DHT22;23154;52.542;13.362;2022-12-18T15:49:08;-4.00;99.90
37268;DHT22;23154;52.542;13.362;2022-12-18T15:51:45;-4.10;99.90
37268;DHT22;23154;52.542;13.362;2022-12-18T15:54:33;-4.10;99.90
37268;DHT22;23154;52.542;13.362;2022-12-18T15:57:17;-4.10;99.90
37268;DHT22;23154;52.542;13.362;2022-12-18T15:59:58;-4.10;99.90
37268;DHT22;23154;52.542;13.362;2022-12-18T16:02:30;-4.10;99.90
37268;DHT22;23154;52.542;13.362;2022-12-18T16:04:55;-4.00;99.90
37268;DHT22;23154;52.542;13.362;2022-12-18T16:07:21;-4.00;99.90
37268;DHT22;23154;52.542;13.362;2022-12-18T16:09:47;-4.00;99.90
37268;DHT22;23154;52.542;13.362;2022-12-18T16:12:17;-4.00;99.90
37268;DHT22;23154;52.542;13.362;2022-12-18T16:14:48;-4.00;99.90
37268;DHT22;23154;52.542;13.362;2022-12-18T16:17:16;-4.10;99.90
37268;DHT22;23154;52.542;13.362;2022-12-18T16:19:43;-4.10;99.90
37268;DHT22;23154;52.542;13.362;2022-12-18T16:22:22;-4.10;99.90
37268;DHT22;23154;52.542;13.362;2022-12-18T16:24:48;-4.00;99.90
37268;DHT22;23154;52.542;13.362;2022-12-18T16:27:14;-4.00;99.90
37268;DHT22;23154;52.542;13.362;2022-12-18T16:29:39;-4.00;99.90
37268;DHT22;23154;52.542;13.362;2022-12-18T16:32:05;-4.00;99.90
37268;DHT22;23154;52.542;13.362;2022-12-18T16:34:31;-4.00;99.90
37268;DHT22;23154;52.542;13.362;2022-12-18T16:36:59;-4.00;99.90
37268;DHT22;23154;52.542;13.362;2022-12-18T16:39:25;-4.00;99.90
37268;DHT22;23154;52.542;13.362;2022-12-18T16:41:52;-4.10;99.90
37268;DHT22;23154;52.542;13.362;2022-12-18T16:44:20;-4.20;99.90
37268;DHT22;23154;52.542;13.362;2022-12-18T16:46:46;-4.20;99.90
37268;DHT22;23154;52.542;13.362;2022-12-18T16:49:25;-4.30;99.90
37268;DHT22;23154;52.542;13.362;2022-12-18T16:51:51;-4.30;99.90
37268;DHT22;23154;52.542;13.362;2022-12-18T16:54:16;-4.30;99.90
37268;DHT22;23154;52.542;13.362;2022-12-18T16:56:42;-4.20;99.90
37268;DHT22;23154;52.542;13.362;2022-12-18T16:59:14;-4.20;99.90
37268;DHT22;23154;52.542;13.362;2022-12-18T17:01:39;-4.20;99.90
37268;DHT22;23154;52.542;13.362;2022-12-18T17:04:06;-4.20;99.90
37268;DHT22;23154;52.542;13.362;2022-12-18T17:06:32;-4.20;99.90